sensor_id;sensor_type;location;lat;lon;timestamp;pressure;altitude;pressure_sealevel;temperature;humidity
44313;BME280;38833;51.142;-0.974;2023-11-18T00:00:51;100307.54;;;26.78;30.69
44313;BME280;38833;51.142;-0.974;2023-11-18T00:03:24;100307.29;;;27.06;30.59
44313;BME280;38833;51.142;-0.974;2023-11-18T00:05:57;100305.51;;;26.89;30.68
44313;BME280;38833;51.142;-0.974;2023-11-18T00:08:30;100287.82;;;27.12;30.53
44313;BME280;38833;51.142;-0.974;2023-11-18T00:11:04;100279.18;;;26.95;30.62
44313;BME280;38833;51.142;-0.974;2023-11-18T00:13:37;100278.44;;;26.99;30.57
44313;BME280;38833;51.142;-0.974;2023-11-18T00:16:10;100279.05;;;26.99;30.57
44313;BME280;38833;51.142;-0.974;2023-11-18T00:18:44;100282.01;;;26.93;30.61
44313;BME280;38833;51.142;-0.974;2023-11-18T00:21:17;100284.76;;;26.73;30.74
44313;BME280;38833;51.142;-0.974;2023-11-18T00:23:51;100284.77;;;26.67;30.78
44313;BME280;38833;51.142;-0.974;2023-11-18T00:26:24;100283.91;;;26.56;30.84
44313;BME280;38833;51.142;-0.974;2023-11-18T00:28:57;100265.86;;;26.59;30.80
44313;BME280;38833;51.142;-0.974;2023-11-18T00:31:30;100266.78;;;26.83;30.81
44313;BME280;38833;51.142;-0.974;2023-11-18T00:34:03;100257.64;;;26.74;30.90
44313;BME280;38833;51.142;-0.974;2023-11-18T00:36:36;100246.28;;;26.55;30.86
44313;BME280;38833;51.142;-0.974;2023-11-18T00:39:10;100235.03;;;26.47;30.86
44313;BME280;38833;51.142;-0.974;2023-11-18T00:41:43;100219.62;;;26.83;30.94
44313;BME280;38833;51.142;-0.974;2023-11-18T00:44:16;100213.02;;;26.55;31.00
44313;BME280;38833;51.142;-0.974;2023-11-18T00:46:49;100208.15;;;26.36;30.88
44313;BME280;38833;51.142;-0.974;2023-11-18T00:49:22;100206.83;;;26.34;31.11
44313;BME280;38833;51.142;-0.974;2023-11-18T00:51:55;100200.09;;;26.46;30.94
44313;BME280;38833;51.142;-0.974;2023-11-18T00:54:29;100188.70;;;26.18;30.99
44313;BME280;38833;51.142;-0.974;2023-11-18T00:57:02;100170.86;;;26.35;31.00
44313;BME280;38833;51.142;-0.974;2023-11-18T00:59:35;100166.64;;;26.13;31.01
44313;BME280;38833;51.142;-0.974;2023-11-18T01:02:08;100156.32;;;26.35;31.01
44313;BME280;38833;51.142;-0.974;2023-11-18T01:04:42;100161.31;;;26.58;30.96
44313;BME280;38833;51.142;-0.974;2023-11-18T01:07:15;100175.73;;;26.47;31.10
44313;BME280;38833;51.142;-0.974;2023-11-18T01:09:48;100170.58;;;26.17;31.11
44313;BME280;38833;51.142;-0.974;2023-11-18T01:12:21;100157.25;;;26.07;31.17
44313;BME280;38833;51.142;-0.974;2023-11-18T01:14:55;100153.44;;;26.12;31.14
44313;BME280;38833;51.142;-0.974;2023-11-18T01:17:28;100151.50;;;25.81;31.18
44313;BME280;38833;51.142;-0.974;2023-11-18T01:20:01;100158.28;;;25.97;31.21
44313;BME280;38833;51.142;-0.974;2023-11-18T01:22:34;100164.75;;;25.92;31.20
44313;BME280;38833;51.142;-0.974;2023-11-18T01:25:08;100150.31;;;25.86;31.25
44313;BME280;38833;51.142;-0.974;2023-11-18T01:27:41;100144.64;;;26.22;31.17
44313;BME280;38833;51.142;-0.974;2023-11-18T01:30:15;100139.27;;;26.20;31.14
44313;BME280;38833;51.142;-0.974;2023-11-18T01:32:48;100138.40;;;26.14;31.20
44313;BME280;38833;51.142;-0.974;2023-11-18T01:35:21;100131.54;;;25.95;31.14
44313;BME280;38833;51.142;-0.974;2023-11-18T01:37:54;100136.04;;;26.12;31.18
44313;BME280;38833;51.142;-0.974;2023-11-18T01:40:28;100135.99;;;25.81;31.17
44313;BME280;38833;51.142;-0.974;2023-11-18T01:43:01;100131.85;;;25.98;31.23
44313;BME280;38833;51.142;-0.974;2023-11-18T01:45:34;100137.52;;;25.98;31.18
44313;BME280;38833;51.142;-0.974;2023-11-18T01:48:08;100127.69;;;25.70;31.25
44313;BME280;38833;51.142;-0.974;2023-11-18T01:50:42;100114.05;;;25.82;31.34
44313;BME280;38833;51.142;-0.974;2023-11-18T01:53:16;100112.13;;;25.91;31.22
44313;BME280;38833;51.142;-0.974;2023-11-18T01:55:49;100118.45;;;25.99;31.17
44313;BME280;38833;51.142;-0.974;2023-11-18T01:58:23;100117.61;;;25.73;31.13
44313;BME280;38833;51.142;-0.974;2023-11-18T02:00:56;100108.76;;;25.85;31.24
44313;BME280;38833;51.142;-0.974;2023-11-18T02:03:29;100113.94;;;25.82;31.22
44313;BME280;38833;51.142;-0.974;2023-11-18T02:06:04;100115.91;;;25.36;31.40
44313;BME280;38833;51.142;-0.974;2023-11-18T02:08:38;100103.85;;;25.86;31.21
44313;BME280;38833;51.142;-0.974;2023-11-18T02:11:20;100089.16;;;25.78;31.25
44313;BME280;38833;51.142;-0.974;2023-11-18T02:13:59;100078.64;;;25.72;31.24
44313;BME280;38833;51.142;-0.974;2023-11-18T02:16:34;100071.97;;;25.59;31.36
44313;BME280;38833;51.142;-0.974;2023-11-18T02:19:18;100065.61;;;25.66;31.29
44313;BME280;38833;51.142;-0.974;2023-11-18T02:21:54;100058.83;;;25.61;31.25
44313;BME280;38833;51.142;-0.974;2023-11-18T02:24:29;100052.42;;;25.54;31.36
44313;BME280;38833;51.142;-0.974;2023-11-18T02:27:03;100050.91;;;25.49;31.39
44313;BME280;38833;51.142;-0.974;2023-11-18T02:29:39;100045.27;;;25.51;31.37
44313;BME280;38833;51.142;-0.974;2023-11-18T02:32:18;100040.19;;;25.48;31.35
44313;BME280;38833;51.142;-0.974;2023-11-18T02:35:00;100037.70;;;25.63;31.22
44313;BME280;38833;51.142;-0.974;2023-11-18T02:37:37;100035.21;;;25.50;31.29
44313;BME280;38833;51.142;-0.974;2023-11-18T02:40:15;100029.53;;;25.38;31.33
44313;BME280;38833;51.142;-0.974;2023-11-18T02:42:51;100030.17;;;25.44;31.32
44313;BME280;38833;51.142;-0.974;2023-11-18T02:45:26;100034.97;;;25.33;31.39
44313;BME280;38833;51.142;-0.974;2023-11-18T02:48:00;100031.73;;;25.32;31.37
44313;BME280;38833;51.142;-0.974;2023-11-18T02:50:33;100015.37;;;25.35;31.29
44313;BME280;38833;51.142;-0.974;2023-11-18T02:53:06;100007.75;;;25.54;31.33
44313;BME280;38833;51.142;-0.974;2023-11-18T02:55:40;99992.74;;;25.31;31.31
44313;BME280;38833;51.142;-0.974;2023-11-18T02:58:13;99991.02;;;25.29;31.33
44313;BME280;38833;51.142;-0.974;2023-11-18T03:00:46;99998.01;;;25.25;31.38
44313;BME280;38833;51.142;-0.974;2023-11-18T03:03:20;100001.73;;;25.27;31.39
44313;BME280;38833;51.142;-0.974;2023-11-18T03:05:53;99992.16;;;25.35;31.45
44313;BME280;38833;51.142;-0.974;2023-11-18T03:08:26;99977.02;;;25.09;31.46
44313;BME280;38833;51.142;-0.974;2023-11-18T03:10:59;99972.78;;;25.41;31.36
44313;BME280;38833;51.142;-0.974;2023-11-18T03:13:32;99964.96;;;25.43;31.33
44313;BME280;38833;51.142;-0.974;2023-11-18T03:16:07;99961.65;;;25.05;31.43
44313;BME280;38833;51.142;-0.974;2023-11-18T03:18:41;99950.82;;;25.41;31.32
44313;BME280;38833;51.142;-0.974;2023-11-18T03:21:15;99949.61;;;25.04;31.40
44313;BME280;38833;51.142;-0.974;2023-11-18T03:23:48;99944.67;;;25.08;31.36
44313;BME280;38833;51.142;-0.974;2023-11-18T03:26:21;99943.66;;;25.17;31.46
44313;BME280;38833;51.142;-0.974;2023-11-18T03:28:54;99942.85;;;25.02;31.35
44313;BME280;38833;51.142;-0.974;2023-11-18T03:31:28;99937.39;;;24.94;31.41
44313;BME280;38833;51.142;-0.974;2023-11-18T03:34:01;99927.63;;;25.39;31.43
44313;BME280;38833;51.142;-0.974;2023-11-18T03:36:34;99915.63;;;25.03;31.48
44313;BME280;38833;51.142;-0.974;2023-11-18T03:39:09;99902.85;;;24.73;31.55
44313;BME280;38833;51.142;-0.974;2023-11-18T03:41:42;99900.45;;;25.13;31.36
44313;BME280;38833;51.142;-0.974;2023-11-18T03:44:15;99903.81;;;24.82;31.42
44313;BME280;38833;51.142;-0.974;2023-11-18T03:46:49;99905.21;;;24.98;31.46
44313;BME280;38833;51.142;-0.974;2023-11-18T03:49:22;99888.66;;;24.93;31.52
44313;BME280;38833;51.142;-0.974;2023-11-18T03:51:55;99888.45;;;25.36;31.37
44313;BME280;38833;51.142;-0.974;2023-11-18T03:54:28;99888.80;;;24.93;31.45
44313;BME280;38833;51.142;-0.974;2023-11-18T03:57:02;99881.52;;;24.75;31.42
44313;BME280;38833;51.142;-0.974;2023-11-18T03:59:35;99879.48;;;24.95;31.50
44313;BME280;38833;51.142;-0.974;2023-11-18T04:02:08;99873.78;;;24.70;31.46
44313;BME280;38833;51.142;-0.974;2023-11-18T04:04:42;99874.98;;;25.13;31.48
44313;BME280;38833;51.142;-0.974;2023-11-18T04:07:15;99866.49;;;24.60;31.54
44313;BME280;38833;51.142;-0.974;2023-11-18T04:09:48;99837.64;;;25.10;31.45
44313;BME280;38833;51.142;-0.974;2023-11-18T04:12:21;99827.42;;;25.13;31.45
44313;BME280;38833;51.142;-0.974;2023-11-18T04:14:54;99837.30;;;24.72;31.58
44313;BME280;38833;51.142;-0.974;2023-11-18T04:17:27;99831.81;;;24.76;31.56
44313;BME280;38833;51.142;-0.974;2023-11-18T04:20:01;99831.30;;;24.38;31.59
44313;BME280;38833;51.142;-0.974;2023-11-18T04:22:34;99829.50;;;25.10;31.40
44313;BME280;38833;51.142;-0.974;2023-11-18T04:25:08;99838.21;;;24.86;31.56
44313;BME280;38833;51.142;-0.974;2023-11-18T04:27:41;99823.92;;;24.65;31.56
44313;BME280;38833;51.142;-0.974;2023-11-18T04:30:14;99796.77;;;24.45;31.51
44313;BME280;38833;51.142;-0.974;2023-11-18T04:32:47;99789.54;;;24.82;31.52
44313;BME280;38833;51.142;-0.974;2023-11-18T04:35:20;99778.72;;;24.67;31.51
44313;BME280;38833;51.142;-0.974;2023-11-18T04:37:54;99780.78;;;24.57;31.60
44313;BME280;38833;51.142;-0.974;2023-11-18T04:40:27;99782.75;;;24.46;31.63
44313;BME280;38833;51.142;-0.974;2023-11-18T04:43:00;99787.06;;;24.69;31.65
44313;BME280;38833;51.142;-0.974;2023-11-18T04:45:33;99789.84;;;24.42;31.52
44313;BME280;38833;51.142;-0.974;2023-11-18T04:48:06;99796.26;;;24.27;31.64
44313;BME280;38833;51.142;-0.974;2023-11-18T04:50:41;99801.59;;;24.22;31.64
44313;BME280;38833;51.142;-0.974;2023-11-18T04:53:14;99787.41;;;24.75;31.56
44313;BME280;38833;51.142;-0.974;2023-11-18T04:55:48;99786.26;;;24.70;31.58
44313;BME280;38833;51.142;-0.974;2023-11-18T04:58:21;99781.87;;;24.44;31.59
44313;BME280;38833;51.142;-0.974;2023-11-18T05:00:54;99774.49;;;24.32;31.50
44313;BME280;38833;51.142;-0.974;2023-11-18T05:03:28;99780.15;;;24.69;31.54
44313;BME280;38833;51.142;-0.974;2023-11-18T05:06:01;99783.62;;;24.40;31.62
44313;BME280;38833;51.142;-0.974;2023-11-18T05:08:34;99769.82;;;24.52;31.67
44313;BME280;38833;51.142;-0.974;2023-11-18T05:11:07;99760.76;;;24.48;31.51
44313;BME280;38833;51.142;-0.974;2023-11-18T05:13:40;99752.89;;;24.22;31.73
44313;BME280;38833;51.142;-0.974;2023-11-18T05:16:14;99741.32;;;24.62;31.58
44313;BME280;38833;51.142;-0.974;2023-11-18T05:18:47;99728.84;;;24.61;31.57
44313;BME280;38833;51.142;-0.974;2023-11-18T05:21:20;99720.17;;;24.10;31.59
44313;BME280;38833;51.142;-0.974;2023-11-18T05:23:54;99715.42;;;24.62;31.51
44313;BME280;38833;51.142;-0.974;2023-11-18T05:26:27;99713.58;;;24.61;31.52
44313;BME280;38833;51.142;-0.974;2023-11-18T05:29:00;99708.78;;;24.52;31.59
44313;BME280;38833;51.142;-0.974;2023-11-18T05:31:33;99702.03;;;24.59;31.51
44313;BME280;38833;51.142;-0.974;2023-11-18T05:34:06;99692.64;;;24.33;31.55
44313;BME280;38833;51.142;-0.974;2023-11-18T05:36:40;99692.40;;;24.31;31.55
44313;BME280;38833;51.142;-0.974;2023-11-18T05:39:13;99691.58;;;24.59;31.48
44313;BME280;38833;51.142;-0.974;2023-11-18T05:41:46;99694.23;;;24.07;31.54
44313;BME280;38833;51.142;-0.974;2023-11-18T05:44:20;99685.72;;;24.59;31.49
44313;BME280;38833;51.142;-0.974;2023-11-18T05:46:53;99663.05;;;24.54;31.49
44313;BME280;38833;51.142;-0.974;2023-11-18T05:49:26;99653.27;;;24.35;31.68
44313;BME280;38833;51.142;-0.974;2023-11-18T05:51:59;99657.85;;;24.08;31.70
44313;BME280;38833;51.142;-0.974;2023-11-18T05:54:33;99648.21;;;24.48;31.51
44313;BME280;38833;51.142;-0.974;2023-11-18T05:57:06;99648.26;;;24.47;31.61
44313;BME280;38833;51.142;-0.974;2023-11-18T05:59:39;99647.03;;;24.19;31.57
44313;BME280;38833;51.142;-0.974;2023-11-18T06:02:12;99656.63;;;24.57;31.38
44313;BME280;38833;51.142;-0.974;2023-11-18T06:04:45;99650.86;;;24.58;31.42
44313;BME280;38833;51.142;-0.974;2023-11-18T06:07:18;99648.83;;;24.28;31.51
44313;BME280;38833;51.142;-0.974;2023-11-18T06:09:52;99650.79;;;24.36;31.40
44313;BME280;38833;51.142;-0.974;2023-11-18T06:12:25;99647.79;;;24.52;31.49
44313;BME280;38833;51.142;-0.974;2023-11-18T06:14:58;99651.43;;;24.43;31.49
44313;BME280;38833;51.142;-0.974;2023-11-18T06:17:31;99652.73;;;24.51;31.43
44313;BME280;38833;51.142;-0.974;2023-11-18T06:20:05;99647.20;;;24.58;31.37
44313;BME280;38833;51.142;-0.974;2023-11-18T06:22:38;99639.75;;;24.55;31.37
44313;BME280;38833;51.142;-0.974;2023-11-18T06:25:11;99627.82;;;24.29;31.41
44313;BME280;38833;51.142;-0.974;2023-11-18T06:27:45;99607.33;;;24.69;31.24
44313;BME280;38833;51.142;-0.974;2023-11-18T06:30:18;99586.50;;;24.53;31.39
44313;BME280;38833;51.142;-0.974;2023-11-18T06:32:51;99583.53;;;24.38;31.48
44313;BME280;38833;51.142;-0.974;2023-11-18T06:35:24;99588.80;;;24.67;31.20
44313;BME280;38833;51.142;-0.974;2023-11-18T06:37:58;99586.28;;;24.82;31.35
44313;BME280;38833;51.142;-0.974;2023-11-18T06:40:31;99582.17;;;24.92;31.29
44313;BME280;38833;51.142;-0.974;2023-11-18T06:43:04;99582.80;;;24.74;31.23
44313;BME280;38833;51.142;-0.974;2023-11-18T06:45:42;99579.26;;;24.00;32.10
44313;BME280;38833;51.142;-0.974;2023-11-18T06:48:15;99571.41;;;23.97;32.22
44313;BME280;38833;51.142;-0.974;2023-11-18T06:50:49;99567.58;;;24.71;31.45
44313;BME280;38833;51.142;-0.974;2023-11-18T06:53:22;99570.58;;;24.94;31.26
44313;BME280;38833;51.142;-0.974;2023-11-18T06:55:55;99560.04;;;24.97;31.32
44313;BME280;38833;51.142;-0.974;2023-11-18T06:58:28;99560.76;;;25.03;31.07
44313;BME280;38833;51.142;-0.974;2023-11-18T07:01:01;99554.12;;;25.02;31.16
44313;BME280;38833;51.142;-0.974;2023-11-18T07:03:34;99551.57;;;25.06;30.97
44313;BME280;38833;51.142;-0.974;2023-11-18T07:06:08;99550.35;;;25.43;30.90
44313;BME280;38833;51.142;-0.974;2023-11-18T07:08:41;99530.86;;;25.42;30.78
44313;BME280;38833;51.142;-0.974;2023-11-18T07:11:15;99523.79;;;25.58;30.68
44313;BME280;38833;51.142;-0.974;2023-11-18T07:13:49;99530.28;;;25.70;30.66
44313;BME280;38833;51.142;-0.974;2023-11-18T07:16:23;99536.05;;;25.56;30.62
44313;BME280;38833;51.142;-0.974;2023-11-18T07:18:56;99534.68;;;25.98;30.56
44313;BME280;38833;51.142;-0.974;2023-11-18T07:21:29;99525.01;;;26.18;30.41
44313;BME280;38833;51.142;-0.974;2023-11-18T07:24:03;99518.58;;;26.01;30.40
44313;BME280;38833;51.142;-0.974;2023-11-18T07:26:37;99513.19;;;26.09;30.16
44313;BME280;38833;51.142;-0.974;2023-11-18T07:29:10;99520.99;;;26.42;30.13
44313;BME280;38833;51.142;-0.974;2023-11-18T07:31:43;99524.50;;;26.46;30.13
44313;BME280;38833;51.142;-0.974;2023-11-18T07:34:16;99527.00;;;26.69;29.94
44313;BME280;38833;51.142;-0.974;2023-11-18T07:36:49;99523.74;;;26.54;29.91
44313;BME280;38833;51.142;-0.974;2023-11-18T07:39:22;99520.57;;;26.61;29.89
44313;BME280;38833;51.142;-0.974;2023-11-18T07:41:56;99512.25;;;27.03;29.72
44313;BME280;38833;51.142;-0.974;2023-11-18T07:44:29;99507.52;;;26.55;30.02
44313;BME280;38833;51.142;-0.974;2023-11-18T07:47:02;99502.33;;;26.84;29.79
44313;BME280;38833;51.142;-0.974;2023-11-18T07:49:36;99502.76;;;26.83;29.78
44313;BME280;38833;51.142;-0.974;2023-11-18T07:52:09;99497.36;;;26.95;29.71
44313;BME280;38833;51.142;-0.974;2023-11-18T07:54:42;99492.64;;;26.66;29.98
44313;BME280;38833;51.142;-0.974;2023-11-18T07:57:15;99487.55;;;26.57;30.13
44313;BME280;38833;51.142;-0.974;2023-11-18T07:59:48;99482.61;;;26.55;30.17
44313;BME280;38833;51.142;-0.974;2023-11-18T08:02:22;99488.61;;;26.18;30.56
44313;BME280;38833;51.142;-0.974;2023-11-18T08:04:55;99488.84;;;26.53;30.20
44313;BME280;38833;51.142;-0.974;2023-11-18T08:07:28;99501.54;;;26.28;30.50
44313;BME280;38833;51.142;-0.974;2023-11-18T08:10:02;99499.71;;;26.05;30.74
44313;BME280;38833;51.142;-0.974;2023-11-18T08:12:35;99490.11;;;26.73;30.29
44313;BME280;38833;51.142;-0.974;2023-11-18T08:15:09;99479.55;;;26.36;30.44
44313;BME280;38833;51.142;-0.974;2023-11-18T08:17:42;99470.34;;;26.30;30.50
44313;BME280;38833;51.142;-0.974;2023-11-18T08:20:15;99471.28;;;26.10;30.52
44313;BME280;38833;51.142;-0.974;2023-11-18T08:22:48;99472.34;;;26.08;30.75
44313;BME280;38833;51.142;-0.974;2023-11-18T08:25:22;99463.73;;;26.65;30.37
44313;BME280;38833;51.142;-0.974;2023-11-18T08:27:55;99471.88;;;26.81;30.00
44313;BME280;38833;51.142;-0.974;2023-11-18T08:30:28;99477.28;;;26.67;30.13
44313;BME280;38833;51.142;-0.974;2023-11-18T08:33:01;99481.01;;;26.93;29.86
44313;BME280;38833;51.142;-0.974;2023-11-18T08:35:35;99468.80;;;26.86;29.67
44313;BME280;38833;51.142;-0.974;2023-11-18T08:38:08;99474.22;;;26.84;29.71
44313;BME280;38833;51.142;-0.974;2023-11-18T08:40:41;99458.48;;;27.10;29.61
44313;BME280;38833;51.142;-0.974;2023-11-18T08:43:14;99459.45;;;26.90;29.59
44313;BME280;38833;51.142;-0.974;2023-11-18T08:45:48;99480.07;;;27.29;29.40
44313;BME280;38833;51.142;-0.974;2023-11-18T08:48:21;99481.78;;;27.15;29.57
44313;BME280;38833;51.142;-0.974;2023-11-18T08:50:54;99483.66;;;27.07;29.65
44313;BME280;38833;51.142;-0.974;2023-11-18T08:53:27;99496.64;;;26.97;29.75
44313;BME280;38833;51.142;-0.974;2023-11-18T08:56:02;99490.91;;;26.92;29.79
44313;BME280;38833;51.142;-0.974;2023-11-18T08:58:36;99480.61;;;27.12;29.58
44313;BME280;38833;51.142;-0.974;2023-11-18T09:01:09;99465.12;;;27.21;29.69
44313;BME280;38833;51.142;-0.974;2023-11-18T09:03:43;99465.42;;;26.94;29.73
44313;BME280;38833;51.142;-0.974;2023-11-18T09:06:16;99461.46;;;26.96;29.93
44313;BME280;38833;51.142;-0.974;2023-11-18T09:08:49;99458.56;;;26.96;29.92
44313;BME280;38833;51.142;-0.974;2023-11-18T09:11:23;99448.45;;;26.78;30.12
44313;BME280;38833;51.142;-0.974;2023-11-18T09:13:57;99443.13;;;26.50;30.18
44313;BME280;38833;51.142;-0.974;2023-11-18T09:16:30;99449.01;;;26.84;30.03
44313;BME280;38833;51.142;-0.974;2023-11-18T09:19:03;99438.64;;;26.74;30.15
44313;BME280;38833;51.142;-0.974;2023-11-18T09:21:36;99437.23;;;26.39;30.28
44313;BME280;38833;51.142;-0.974;2023-11-18T09:24:10;99432.79;;;26.64;30.25
44313;BME280;38833;51.142;-0.974;2023-11-18T09:26:43;99421.55;;;26.42;30.22
44313;BME280;38833;51.142;-0.974;2023-11-18T09:29:17;99424.57;;;26.57;30.30
44313;BME280;38833;51.142;-0.974;2023-11-18T09:31:51;99425.00;;;26.46;30.40
44313;BME280;38833;51.142;-0.974;2023-11-18T09:34:24;99428.56;;;26.58;30.25
44313;BME280;38833;51.142;-0.974;2023-11-18T09:36:58;99424.54;;;26.51;30.29
44313;BME280;38833;51.142;-0.974;2023-11-18T09:39:31;99411.62;;;26.59;30.18
44313;BME280;38833;51.142;-0.974;2023-11-18T09:42:06;99414.80;;;26.33;30.21
44313;BME280;38833;51.142;-0.974;2023-11-18T09:44:39;99403.62;;;26.49;30.28
44313;BME280;38833;51.142;-0.974;2023-11-18T09:47:15;99400.63;;;26.32;30.21
44313;BME280;38833;51.142;-0.974;2023-11-18T09:49:52;99409.95;;;26.21;30.27
44313;BME280;38833;51.142;-0.974;2023-11-18T09:52:30;99409.67;;;26.29;30.19
44313;BME280;38833;51.142;-0.974;2023-11-18T09:55:08;99417.94;;;26.44;30.23
44313;BME280;38833;51.142;-0.974;2023-11-18T09:57:46;99419.79;;;26.46;30.52
44313;BME280;38833;51.142;-0.974;2023-11-18T10:00:22;99433.08;;;26.77;30.20
44313;BME280;38833;51.142;-0.974;2023-11-18T10:02:55;99435.60;;;26.33;30.32
44313;BME280;38833;51.142;-0.974;2023-11-18T10:05:29;99437.24;;;26.21;30.45
44313;BME280;38833;51.142;-0.974;2023-11-18T10:08:03;99448.97;;;26.13;30.51
44313;BME280;38833;51.142;-0.974;2023-11-18T10:10:37;99455.10;;;25.94;30.48
44313;BME280;38833;51.142;-0.974;2023-11-18T10:13:10;99452.68;;;26.00;30.60
44313;BME280;38833;51.142;-0.974;2023-11-18T10:15:43;99443.54;;;26.37;30.51
44313;BME280;38833;51.142;-0.974;2023-11-18T10:18:17;99426.27;;;25.94;30.50
44313;BME280;38833;51.142;-0.974;2023-11-18T10:20:51;99433.19;;;25.93;30.45
44313;BME280;38833;51.142;-0.974;2023-11-18T10:23:24;99433.13;;;26.01;30.60
44313;BME280;38833;51.142;-0.974;2023-11-18T10:25:59;99411.65;;;25.81;30.57
44313;BME280;38833;51.142;-0.974;2023-11-18T10:28:33;99395.45;;;26.30;30.56
44313;BME280;38833;51.142;-0.974;2023-11-18T10:31:07;99406.35;;;26.33;30.50
44313;BME280;38833;51.142;-0.974;2023-11-18T10:33:41;99419.32;;;25.74;31.82
44313;BME280;38833;51.142;-0.974;2023-11-18T10:36:18;99417.44;;;26.44;31.61
44313;BME280;38833;51.142;-0.974;2023-11-18T10:38:52;99412.08;;;26.21;32.20
44313;BME280;38833;51.142;-0.974;2023-11-18T10:41:26;99426.53;;;26.19;32.21
44313;BME280;38833;51.142;-0.974;2023-11-18T10:44:06;99421.51;;;26.22;31.90
44313;BME280;38833;51.142;-0.974;2023-11-18T10:46:41;99416.17;;;26.12;32.53
44313;BME280;38833;51.142;-0.974;2023-11-18T10:49:16;99437.55;;;25.88;32.37
44313;BME280;38833;51.142;-0.974;2023-11-18T10:51:51;99421.13;;;26.11;32.23
44313;BME280;38833;51.142;-0.974;2023-11-18T10:54:24;99423.78;;;25.76;32.26
44313;BME280;38833;51.142;-0.974;2023-11-18T10:57:01;99404.97;;;26.21;31.96
44313;BME280;38833;51.142;-0.974;2023-11-18T10:59:34;99406.67;;;25.88;32.10
44313;BME280;38833;51.142;-0.974;2023-11-18T11:02:23;99409.96;;;25.88;32.12
44313;BME280;38833;51.142;-0.974;2023-11-18T11:04:56;99409.14;;;25.81;32.20
44313;BME280;38833;51.142;-0.974;2023-11-18T11:07:31;99410.35;;;26.08;32.24
44313;BME280;38833;51.142;-0.974;2023-11-18T11:10:05;99407.75;;;25.70;32.22
44313;BME280;38833;51.142;-0.974;2023-11-18T11:12:42;99403.81;;;25.95;32.06
44313;BME280;38833;51.142;-0.974;2023-11-18T11:15:20;99402.53;;;26.18;32.07
44313;BME280;38833;51.142;-0.974;2023-11-18T11:17:58;99404.20;;;25.72;32.39
44313;BME280;38833;51.142;-0.974;2023-11-18T11:20:37;99405.70;;;25.93;32.50
44313;BME280;38833;51.142;-0.974;2023-11-18T11:23:18;99402.26;;;25.86;32.86
44313;BME280;38833;51.142;-0.974;2023-11-18T11:26:01;99409.88;;;26.03;32.48
44313;BME280;38833;51.142;-0.974;2023-11-18T11:28:42;99412.20;;;25.71;32.51
44313;BME280;38833;51.142;-0.974;2023-11-18T11:31:21;99405.82;;;25.68;32.59
44313;BME280;38833;51.142;-0.974;2023-11-18T11:33:57;99416.12;;;25.85;32.56
44313;BME280;38833;51.142;-0.974;2023-11-18T11:36:37;99411.62;;;26.06;32.41
44313;BME280;38833;51.142;-0.974;2023-11-18T11:39:11;99416.93;;;25.88;32.41
44313;BME280;38833;51.142;-0.974;2023-11-18T11:41:45;99419.01;;;26.10;32.34
44313;BME280;38833;51.142;-0.974;2023-11-18T11:44:18;99415.79;;;25.96;32.88
44313;BME280;38833;51.142;-0.974;2023-11-18T11:46:51;99407.19;;;25.88;33.16
44313;BME280;38833;51.142;-0.974;2023-11-18T11:49:25;99423.22;;;25.44;33.31
44313;BME280;38833;51.142;-0.974;2023-11-18T11:52:06;99430.20;;;25.96;32.85
44313;BME280;38833;51.142;-0.974;2023-11-18T11:54:48;99426.43;;;25.62;32.94
44313;BME280;38833;51.142;-0.974;2023-11-18T11:57:26;99420.60;;;25.93;32.93
44313;BME280;38833;51.142;-0.974;2023-11-18T11:59:59;99414.78;;;25.69;32.82
44313;BME280;38833;51.142;-0.974;2023-11-18T12:02:36;99424.48;;;25.90;32.86
44313;BME280;38833;51.142;-0.974;2023-11-18T12:05:09;99412.79;;;25.79;33.16
44313;BME280;38833;51.142;-0.974;2023-11-18T12:07:42;99399.17;;;25.77;33.20
44313;BME280;38833;51.142;-0.974;2023-11-18T12:10:15;99399.53;;;25.68;32.67
44313;BME280;38833;51.142;-0.974;2023-11-18T12:12:49;99397.85;;;26.10;33.25
44313;BME280;38833;51.142;-0.974;2023-11-18T12:15:48;99399.59;;;25.69;33.42
44313;BME280;38833;51.142;-0.974;2023-11-18T12:18:22;99406.63;;;25.62;33.98
44313;BME280;38833;51.142;-0.974;2023-11-18T12:20:55;99373.74;;;25.53;34.28
44313;BME280;38833;51.142;-0.974;2023-11-18T12:23:28;99381.43;;;25.51;34.63
44313;BME280;38833;51.142;-0.974;2023-11-18T12:26:02;99391.20;;;25.82;34.25
44313;BME280;38833;51.142;-0.974;2023-11-18T12:29:31;99409.36;;;25.99;34.49
44313;BME280;38833;51.142;-0.974;2023-11-18T12:32:05;99423.08;;;25.88;34.06
44313;BME280;38833;51.142;-0.974;2023-11-18T12:34:55;99408.04;;;26.02;33.75
44313;BME280;38833;51.142;-0.974;2023-11-18T12:37:49;99418.33;;;26.15;33.91
44313;BME280;38833;51.142;-0.974;2023-11-18T12:40:51;99428.19;;;25.98;33.62
44313;BME280;38833;51.142;-0.974;2023-11-18T12:43:46;99424.27;;;26.05;33.59
44313;BME280;38833;51.142;-0.974;2023-11-18T12:46:48;99414.73;;;26.42;33.77
44313;BME280;38833;51.142;-0.974;2023-11-18T12:49:23;99405.05;;;26.41;34.23
44313;BME280;38833;51.142;-0.974;2023-11-18T12:51:56;99406.96;;;26.03;34.26
44313;BME280;38833;51.142;-0.974;2023-11-18T12:54:30;99409.29;;;26.31;34.08
44313;BME280;38833;51.142;-0.974;2023-11-18T12:57:03;99404.29;;;26.10;33.73
44313;BME280;38833;51.142;-0.974;2023-11-18T12:59:38;99403.17;;;26.47;33.84
44313;BME280;38833;51.142;-0.974;2023-11-18T13:02:11;99399.92;;;26.15;33.72
44313;BME280;38833;51.142;-0.974;2023-11-18T13:04:44;99396.78;;;26.12;33.88
44313;BME280;38833;51.142;-0.974;2023-11-18T13:07:18;99399.76;;;26.52;33.84
44313;BME280;38833;51.142;-0.974;2023-11-18T13:09:52;99396.09;;;26.45;33.79
44313;BME280;38833;51.142;-0.974;2023-11-18T13:12:25;99399.30;;;26.23;33.78
44313;BME280;38833;51.142;-0.974;2023-11-18T13:14:58;99389.25;;;26.27;33.65
44313;BME280;38833;51.142;-0.974;2023-11-18T13:17:32;99395.53;;;26.48;33.64
44313;BME280;38833;51.142;-0.974;2023-11-18T13:20:11;99397.97;;;26.29;33.77
44313;BME280;38833;51.142;-0.974;2023-11-18T13:22:45;99393.62;;;26.26;33.78
44313;BME280;38833;51.142;-0.974;2023-11-18T13:25:18;99400.46;;;26.48;33.85